sensor_id;sensor_type;location;lat;lon;timestamp;pressure;altitude;pressure_sealevel;temperature;humidity
8160;BME280;27404;52.398;9.646;2023-05-02T00:01:58;100892.00;;;10.97;100.00
8160;BME280;27404;52.398;9.646;2023-05-02T00:04:24;100886.06;;;11.00;100.00
8160;BME280;27404;52.398;9.646;2023-05-02T00:06:52;100888.19;;;10.98;100.00
8160;BME280;27404;52.398;9.646;2023-05-02T00:09:18;100885.56;;;10.91;100.00
8160;BME280;27404;52.398;9.646;2023-05-02T00:11:43;100895.66;;;10.91;100.00
8160;BME280;27404;52.398;9.646;2023-05-02T00:14:09;100884.00;;;10.95;100.00
8160;BME280;27404;52.398;9.646;2023-05-02T00:16:34;100888.53;;;10.90;100.00
8160;BME280;27404;52.398;9.646;2023-05-02T00:19:00;100885.88;;;10.83;100.00
8160;BME280;27404;52.398;9.646;2023-05-02T00:21:25;100894.31;;;10.81;100.00
8160;BME280;27404;52.398;9.646;2023-05-02T00:23:56;100888.84;;;10.81;100.00
8160;BME280;27404;52.398;9.646;2023-05-02T00:26:22;100897.28;;;10.80;100.00
8160;BME280;27404;52.398;9.646;2023-05-02T00:28:47;100889.91;;;10.80;100.00
8160;BME280;27404;52.398;9.646;2023-05-02T00:31:13;100892.44;;;10.82;100.00
8160;BME280;27404;52.398;9.646;2023-05-02T00:33:39;100899.41;;;10.78;100.00
8160;BME280;27404;52.398;9.646;2023-05-02T00:36:12;100900.63;;;10.82;100.00
8160;BME280;27404;52.398;9.646;2023-05-02T00:38:38;100900.94;;;10.74;100.00
8160;BME280;27404;52.398;9.646;2023-05-02T00:41:03;100897.97;;;10.75;100.00
8160;BME280;27404;52.398;9.646;2023-05-02T00:43:29;100897.00;;;10.70;100.00
8160;BME280;27404;52.398;9.646;2023-05-02T00:45:55;100905.34;;;10.75;100.00
8160;BME280;27404;52.398;9.646;2023-05-02T00:48:21;100899.63;;;10.76;100.00
8160;BME280;27404;52.398;9.646;2023-05-02T00:50:47;100903.22;;;10.77;100.00
8160;BME280;27404;52.398;9.646;2023-05-02T00:53:12;100895.94;;;10.71;100.00
8160;BME280;27404;52.398;9.646;2023-05-02T00:55:39;100897.34;;;10.73;100.00
8160;BME280;27404;52.398;9.646;2023-05-02T00:58:08;100899.28;;;10.73;100.00
8160;BME280;27404;52.398;9.646;2023-05-02T01:06:14;100908.59;;;10.65;100.00
8160;BME280;27404;52.398;9.646;2023-05-02T01:09:14;100908.25;;;10.61;100.00
8160;BME280;27404;52.398;9.646;2023-05-02T01:14:47;100912.28;;;10.59;100.00
8160;BME280;27404;52.398;9.646;2023-05-02T01:17:15;100912.78;;;10.68;100.00
8160;BME280;27404;52.398;9.646;2023-05-02T01:20:11;100916.59;;;10.66;100.00
8160;BME280;27404;52.398;9.646;2023-05-02T01:22:38;100921.59;;;10.70;100.00
8160;BME280;27404;52.398;9.646;2023-05-02T01:25:22;100918.41;;;10.73;100.00
8160;BME280;27404;52.398;9.646;2023-05-02T01:30:40;100920.75;;;10.69;100.00
8160;BME280;27404;52.398;9.646;2023-05-02T01:33:08;100922.56;;;10.75;100.00
8160;BME280;27404;52.398;9.646;2023-05-02T01:35:36;100927.22;;;10.75;100.00
8160;BME280;27404;52.398;9.646;2023-05-02T01:38:03;100930.09;;;10.80;100.00
8160;BME280;27404;52.398;9.646;2023-05-02T01:40:31;100936.94;;;10.71;100.00
8160;BME280;27404;52.398;9.646;2023-05-02T01:42:58;100928.97;;;10.69;100.00
8160;BME280;27404;52.398;9.646;2023-05-02T01:45:25;100931.94;;;10.68;100.00
8160;BME280;27404;52.398;9.646;2023-05-02T01:47:53;100937.41;;;10.68;100.00
8160;BME280;27404;52.398;9.646;2023-05-02T01:50:21;100947.28;;;10.69;100.00
8160;BME280;27404;52.398;9.646;2023-05-02T01:52:50;100944.75;;;10.67;100.00
8160;BME280;27404;52.398;9.646;2023-05-02T01:55:17;100946.06;;;10.64;100.00
8160;BME280;27404;52.398;9.646;2023-05-02T01:57:45;100942.25;;;10.65;100.00
8160;BME280;27404;52.398;9.646;2023-05-02T02:00:12;100949.25;;;10.61;100.00
8160;BME280;27404;52.398;9.646;2023-05-02T02:02:41;100955.88;;;10.54;100.00
8160;BME280;27404;52.398;9.646;2023-05-02T02:05:08;100946.22;;;10.51;100.00
8160;BME280;27404;52.398;9.646;2023-05-02T02:07:35;100951.53;;;10.46;100.00
8160;BME280;27404;52.398;9.646;2023-05-02T02:10:00;100955.31;;;10.45;100.00
8160;BME280;27404;52.398;9.646;2023-05-02T02:12:31;100956.63;;;10.42;100.00
8160;BME280;27404;52.398;9.646;2023-05-02T02:15:09;100964.22;;;10.40;100.00
8160;BME280;27404;52.398;9.646;2023-05-02T02:17:48;100951.38;;;10.41;100.00
8160;BME280;27404;52.398;9.646;2023-05-02T02:20:14;100961.84;;;10.44;100.00
8160;BME280;27404;52.398;9.646;2023-05-02T02:22:42;100957.44;;;10.43;100.00
8160;BME280;27404;52.398;9.646;2023-05-02T02:25:15;100964.56;;;10.44;100.00
8160;BME280;27404;52.398;9.646;2023-05-02T02:27:41;100963.97;;;10.42;100.00
8160;BME280;27404;52.398;9.646;2023-05-02T02:30:10;100974.84;;;10.48;100.00
8160;BME280;27404;52.398;9.646;2023-05-02T02:32:35;100964.72;;;10.49;100.00
8160;BME280;27404;52.398;9.646;2023-05-02T02:35:01;100966.66;;;10.48;100.00
8160;BME280;27404;52.398;9.646;2023-05-02T02:37:40;100958.44;;;10.48;100.00
8160;BME280;27404;52.398;9.646;2023-05-02T02:43:05;100976.38;;;10.37;100.00
8160;BME280;27404;52.398;9.646;2023-05-02T02:48:32;100988.97;;;10.38;100.00
8160;BME280;27404;52.398;9.646;2023-05-02T02:54:08;100995.25;;;10.46;100.00
8160;BME280;27404;52.398;9.646;2023-05-02T02:56:41;101003.25;;;10.47;100.00
8160;BME280;27404;52.398;9.646;2023-05-02T02:59:16;100998.16;;;10.51;100.00
8160;BME280;27404;52.398;9.646;2023-05-02T03:01:47;101010.84;;;10.45;100.00
8160;BME280;27404;52.398;9.646;2023-05-02T03:04:17;101013.78;;;10.44;100.00
8160;BME280;27404;52.398;9.646;2023-05-02T03:06:45;101008.91;;;10.46;100.00
8160;BME280;27404;52.398;9.646;2023-05-02T03:09:14;101009.78;;;10.46;100.00
8160;BME280;27404;52.398;9.646;2023-05-02T03:11:43;101010.22;;;10.43;100.00
8160;BME280;27404;52.398;9.646;2023-05-02T03:14:10;101003.28;;;10.41;100.00
8160;BME280;27404;52.398;9.646;2023-05-02T03:16:38;101012.75;;;10.38;100.00
8160;BME280;27404;52.398;9.646;2023-05-02T03:19:04;101013.16;;;10.42;100.00
8160;BME280;27404;52.398;9.646;2023-05-02T03:21:30;101019.69;;;10.41;100.00
8160;BME280;27404;52.398;9.646;2023-05-02T03:24:00;101019.69;;;10.41;100.00
8160;BME280;27404;52.398;9.646;2023-05-02T03:26:26;101019.84;;;10.46;100.00
8160;BME280;27404;52.398;9.646;2023-05-02T03:28:53;101024.50;;;10.45;100.00
8160;BME280;27404;52.398;9.646;2023-05-02T03:31:19;101025.16;;;10.41;100.00
8160;BME280;27404;52.398;9.646;2023-05-02T03:33:44;101026.63;;;10.36;100.00
8160;BME280;27404;52.398;9.646;2023-05-02T03:36:10;101034.84;;;10.36;100.00
8160;BME280;27404;52.398;9.646;2023-05-02T03:38:36;101032.09;;;10.43;100.00
8160;BME280;27404;52.398;9.646;2023-05-02T03:41:01;101028.94;;;10.40;100.00
8160;BME280;27404;52.398;9.646;2023-05-02T03:43:28;101039.06;;;10.39;100.00
8160;BME280;27404;52.398;9.646;2023-05-02T03:45:53;101033.50;;;10.46;100.00
8160;BME280;27404;52.398;9.646;2023-05-02T03:48:19;101041.09;;;10.44;100.00
8160;BME280;27404;52.398;9.646;2023-05-02T03:50:44;101036.75;;;10.36;100.00
8160;BME280;27404;52.398;9.646;2023-05-02T03:53:10;101041.97;;;10.37;100.00
8160;BME280;27404;52.398;9.646;2023-05-02T03:55:42;101038.63;;;10.42;100.00
8160;BME280;27404;52.398;9.646;2023-05-02T03:58:09;101043.03;;;10.43;100.00
8160;BME280;27404;52.398;9.646;2023-05-02T04:00:35;101049.09;;;10.38;100.00
8160;BME280;27404;52.398;9.646;2023-05-02T04:03:01;101053.13;;;10.36;100.00
8160;BME280;27404;52.398;9.646;2023-05-02T04:05:26;101051.22;;;10.36;100.00
8160;BME280;27404;52.398;9.646;2023-05-02T04:07:52;101060.94;;;10.32;100.00
8160;BME280;27404;52.398;9.646;2023-05-02T04:10:17;101065.56;;;10.32;100.00
8160;BME280;27404;52.398;9.646;2023-05-02T04:12:43;101068.75;;;10.29;100.00
8160;BME280;27404;52.398;9.646;2023-05-02T04:15:11;101075.03;;;10.29;100.00
8160;BME280;27404;52.398;9.646;2023-05-02T04:17:37;101077.84;;;10.22;100.00
8160;BME280;27404;52.398;9.646;2023-05-02T04:20:03;101083.19;;;10.11;100.00
8160;BME280;27404;52.398;9.646;2023-05-02T04:22:29;101092.03;;;10.06;100.00
8160;BME280;27404;52.398;9.646;2023-05-02T04:24:55;101094.66;;;9.94;100.00
8160;BME280;27404;52.398;9.646;2023-05-02T04:27:21;101100.16;;;9.87;100.00
8160;BME280;27404;52.398;9.646;2023-05-02T04:29:48;101104.13;;;9.91;100.00
8160;BME280;27404;52.398;9.646;2023-05-02T04:32:14;101112.97;;;9.87;100.00
8160;BME280;27404;52.398;9.646;2023-05-02T04:34:39;101101.53;;;9.97;100.00
8160;BME280;27404;52.398;9.646;2023-05-02T04:37:05;101116.50;;;9.94;100.00
8160;BME280;27404;52.398;9.646;2023-05-02T04:39:31;101121.72;;;9.96;100.00
8160;BME280;27404;52.398;9.646;2023-05-02T04:41:56;101122.63;;;9.89;100.00
8160;BME280;27404;52.398;9.646;2023-05-02T04:44:22;101124.56;;;9.82;100.00
8160;BME280;27404;52.398;9.646;2023-05-02T04:46:47;101128.78;;;9.78;100.00
8160;BME280;27404;52.398;9.646;2023-05-02T04:49:13;101135.31;;;9.70;100.00
8160;BME280;27404;52.398;9.646;2023-05-02T04:51:38;101143.94;;;9.67;100.00
8160;BME280;27404;52.398;9.646;2023-05-02T04:54:04;101143.09;;;9.67;100.00
8160;BME280;27404;52.398;9.646;2023-05-02T04:56:29;101155.72;;;9.61;100.00
8160;BME280;27404;52.398;9.646;2023-05-02T04:58:54;101164.31;;;9.65;100.00
8160;BME280;27404;52.398;9.646;2023-05-02T05:01:20;101171.03;;;9.62;100.00
8160;BME280;27404;52.398;9.646;2023-05-02T05:03:45;101171.50;;;9.59;100.00
8160;BME280;27404;52.398;9.646;2023-05-02T05:06:11;101188.94;;;9.51;100.00
8160;BME280;27404;52.398;9.646;2023-05-02T05:08:37;101182.69;;;9.30;100.00
8160;BME280;27404;52.398;9.646;2023-05-02T05:11:02;101184.78;;;9.28;100.00
8160;BME280;27404;52.398;9.646;2023-05-02T05:13:29;101194.69;;;9.09;100.00
8160;BME280;27404;52.398;9.646;2023-05-02T05:15:54;101203.09;;;8.94;100.00
8160;BME280;27404;52.398;9.646;2023-05-02T05:18:20;101205.84;;;8.81;100.00
8160;BME280;27404;52.398;9.646;2023-05-02T05:20:46;101206.47;;;8.69;100.00
8160;BME280;27404;52.398;9.646;2023-05-02T05:23:11;101216.94;;;8.52;100.00
8160;BME280;27404;52.398;9.646;2023-05-02T05:25:36;101221.50;;;8.45;100.00
8160;BME280;27404;52.398;9.646;2023-05-02T05:28:03;101230.16;;;8.49;100.00
8160;BME280;27404;52.398;9.646;2023-05-02T05:30:28;101232.00;;;8.41;100.00
8160;BME280;27404;52.398;9.646;2023-05-02T05:32:55;101246.84;;;8.32;100.00
8160;BME280;27404;52.398;9.646;2023-05-02T05:35:23;101251.00;;;8.28;100.00
8160;BME280;27404;52.398;9.646;2023-05-02T05:37:48;101260.41;;;8.12;100.00
8160;BME280;27404;52.398;9.646;2023-05-02T05:40:14;101262.28;;;8.11;100.00
8160;BME280;27404;52.398;9.646;2023-05-02T05:42:41;101257.44;;;8.07;100.00
8160;BME280;27404;52.398;9.646;2023-05-02T05:45:06;101258.69;;;8.04;100.00
8160;BME280;27404;52.398;9.646;2023-05-02T05:47:33;101265.69;;;8.27;100.00
8160;BME280;27404;52.398;9.646;2023-05-02T05:49:59;101271.47;;;8.04;100.00
8160;BME280;27404;52.398;9.646;2023-05-02T05:52:25;101275.13;;;8.38;100.00
8160;BME280;27404;52.398;9.646;2023-05-02T05:54:54;101275.72;;;8.20;100.00
8160;BME280;27404;52.398;9.646;2023-05-02T05:57:21;101283.06;;;8.26;100.00
8160;BME280;27404;52.398;9.646;2023-05-02T05:59:47;101290.63;;;8.30;100.00
8160;BME280;27404;52.398;9.646;2023-05-02T06:02:12;101293.44;;;8.51;100.00
8160;BME280;27404;52.398;9.646;2023-05-02T06:04:38;101297.66;;;8.60;100.00
8160;BME280;27404;52.398;9.646;2023-05-02T06:07:04;101298.69;;;8.52;100.00
8160;BME280;27404;52.398;9.646;2023-05-02T06:09:29;101313.84;;;8.75;100.00
8160;BME280;27404;52.398;9.646;2023-05-02T06:11:55;101317.34;;;8.55;100.00
8160;BME280;27404;52.398;9.646;2023-05-02T06:14:20;101323.75;;;8.34;100.00
8160;BME280;27404;52.398;9.646;2023-05-02T06:16:46;101329.69;;;8.51;100.00
8160;BME280;27404;52.398;9.646;2023-05-02T06:19:11;101337.06;;;8.51;100.00
8160;BME280;27404;52.398;9.646;2023-05-02T06:21:37;101344.28;;;8.30;100.00
8160;BME280;27404;52.398;9.646;2023-05-02T06:24:02;101341.59;;;8.43;100.00
8160;BME280;27404;52.398;9.646;2023-05-02T06:26:28;101346.78;;;8.32;100.00
8160;BME280;27404;52.398;9.646;2023-05-02T06:28:54;101344.09;;;8.45;100.00
8160;BME280;27404;52.398;9.646;2023-05-02T06:31:19;101353.31;;;8.37;100.00
8160;BME280;27404;52.398;9.646;2023-05-02T06:33:45;101357.72;;;8.45;100.00
8160;BME280;27404;52.398;9.646;2023-05-02T06:36:11;101355.50;;;8.55;100.00
8160;BME280;27404;52.398;9.646;2023-05-02T06:38:36;101351.75;;;8.63;100.00
8160;BME280;27404;52.398;9.646;2023-05-02T06:41:01;101355.72;;;8.61;100.00
8160;BME280;27404;52.398;9.646;2023-05-02T06:43:27;101372.06;;;8.54;100.00
8160;BME280;27404;52.398;9.646;2023-05-02T06:45:53;101372.94;;;8.74;100.00
8160;BME280;27404;52.398;9.646;2023-05-02T06:48:20;101375.22;;;8.57;100.00
8160;BME280;27404;52.398;9.646;2023-05-02T06:50:46;101379.59;;;8.52;100.00
8160;BME280;27404;52.398;9.646;2023-05-02T06:53:12;101380.38;;;8.45;100.00
8160;BME280;27404;52.398;9.646;2023-05-02T06:55:37;101389.06;;;8.56;100.00
8160;BME280;27404;52.398;9.646;2023-05-02T06:58:03;101381.94;;;8.62;100.00
8160;BME280;27404;52.398;9.646;2023-05-02T07:00:28;101394.31;;;8.64;100.00
8160;BME280;27404;52.398;9.646;2023-05-02T07:02:54;101387.50;;;9.02;100.00
8160;BME280;27404;52.398;9.646;2023-05-02T07:05:20;101391.53;;;9.33;100.00
8160;BME280;27404;52.398;9.646;2023-05-02T07:07:46;101395.53;;;9.37;100.00
8160;BME280;27404;52.398;9.646;2023-05-02T07:10:11;101400.13;;;9.70;100.00
8160;BME280;27404;52.398;9.646;2023-05-02T07:12:38;101418.41;;;9.50;100.00
8160;BME280;27404;52.398;9.646;2023-05-02T07:15:06;101422.81;;;9.64;100.00
8160;BME280;27404;52.398;9.646;2023-05-02T07:17:31;101433.09;;;9.75;100.00
8160;BME280;27404;52.398;9.646;2023-05-02T07:19:57;101428.06;;;9.72;100.00
8160;BME280;27404;52.398;9.646;2023-05-02T07:22:22;101432.69;;;9.85;100.00
8160;BME280;27404;52.398;9.646;2023-05-02T07:24:48;101430.28;;;10.43;100.00
8160;BME280;27404;52.398;9.646;2023-05-02T07:27:21;101433.13;;;10.75;100.00
8160;BME280;27404;52.398;9.646;2023-05-02T07:29:46;101439.44;;;11.14;100.00
8160;BME280;27404;52.398;9.646;2023-05-02T07:32:11;101440.66;;;10.86;100.00
8160;BME280;27404;52.398;9.646;2023-05-02T07:34:37;101452.06;;;10.70;100.00
8160;BME280;27404;52.398;9.646;2023-05-02T07:37:02;101451.91;;;10.51;100.00
8160;BME280;27404;52.398;9.646;2023-05-02T07:39:28;101450.91;;;10.45;100.00
8160;BME280;27404;52.398;9.646;2023-05-02T07:41:53;101449.03;;;10.39;100.00
8160;BME280;27404;52.398;9.646;2023-05-02T07:44:20;101463.13;;;9.89;100.00
8160;BME280;27404;52.398;9.646;2023-05-02T07:46:46;101470.06;;;9.98;100.00
8160;BME280;27404;52.398;9.646;2023-05-02T07:49:12;101471.75;;;10.13;100.00
8160;BME280;27404;52.398;9.646;2023-05-02T07:51:38;101467.94;;;10.20;100.00
8160;BME280;27404;52.398;9.646;2023-05-02T07:54:22;101468.78;;;10.01;100.00
8160;BME280;27404;52.398;9.646;2023-05-02T07:56:50;101471.13;;;9.70;100.00
8160;BME280;27404;52.398;9.646;2023-05-02T07:59:15;101475.53;;;9.85;100.00
8160;BME280;27404;52.398;9.646;2023-05-02T08:01:41;101482.69;;;9.86;100.00
8160;BME280;27404;52.398;9.646;2023-05-02T08:04:07;101484.34;;;9.73;100.00
8160;BME280;27404;52.398;9.646;2023-05-02T08:06:36;101484.16;;;9.95;100.00
8160;BME280;27404;52.398;9.646;2023-05-02T08:09:01;101499.03;;;9.72;100.00
8160;BME280;27404;52.398;9.646;2023-05-02T08:11:27;101486.25;;;9.86;100.00
8160;BME280;27404;52.398;9.646;2023-05-02T08:13:54;101504.50;;;10.19;100.00
8160;BME280;27404;52.398;9.646;2023-05-02T08:16:20;101498.59;;;10.56;100.00
8160;BME280;27404;52.398;9.646;2023-05-02T08:18:45;101502.19;;;10.50;100.00
8160;BME280;27404;52.398;9.646;2023-05-02T08:21:11;101508.88;;;10.68;100.00
8160;BME280;27404;52.398;9.646;2023-05-02T08:23:37;101513.94;;;10.57;100.00
8160;BME280;27404;52.398;9.646;2023-05-02T08:26:03;101528.47;;;10.31;100.00
8160;BME280;27404;52.398;9.646;2023-05-02T08:28:29;101522.19;;;10.17;100.00
8160;BME280;27404;52.398;9.646;2023-05-02T08:30:55;101528.69;;;10.02;100.00
8160;BME280;27404;52.398;9.646;2023-05-02T08:33:20;101526.97;;;9.74;100.00
8160;BME280;27404;52.398;9.646;2023-05-02T08:35:47;101544.00;;;9.70;100.00
8160;BME280;27404;52.398;9.646;2023-05-02T08:38:12;101549.19;;;9.44;100.00
8160;BME280;27404;52.398;9.646;2023-05-02T08:40:38;101547.19;;;9.11;100.00
8160;BME280;27404;52.398;9.646;2023-05-02T08:43:04;101557.84;;;9.06;100.00
8160;BME280;27404;52.398;9.646;2023-05-02T08:45:56;101561.59;;;8.92;100.00
8160;BME280;27404;52.398;9.646;2023-05-02T08:48:24;101570.34;;;8.87;100.00
8160;BME280;27404;52.398;9.646;2023-05-02T08:50:51;101571.56;;;8.78;100.00
8160;BME280;27404;52.398;9.646;2023-05-02T08:53:18;101580.53;;;9.07;100.00
8160;BME280;27404;52.398;9.646;2023-05-02T08:55:45;101577.63;;;9.15;100.00
8160;BME280;27404;52.398;9.646;2023-05-02T08:58:11;101587.97;;;9.26;100.00
8160;BME280;27404;52.398;9.646;2023-05-02T09:00:38;101582.53;;;9.33;100.00
8160;BME280;27404;52.398;9.646;2023-05-02T09:05:51;101593.31;;;9.55;100.00
8160;BME280;27404;52.398;9.646;2023-05-02T09:08:22;101594.19;;;9.69;100.00
8160;BME280;27404;52.398;9.646;2023-05-02T09:10:48;101601.53;;;9.61;100.00
8160;BME280;27404;52.398;9.646;2023-05-02T09:13:30;101601.31;;;9.63;100.00
8160;BME280;27404;52.398;9.646;2023-05-02T09:16:14;101611.31;;;8.94;100.00
8160;BME280;27404;52.398;9.646;2023-05-02T09:18:48;101605.97;;;9.14;100.00
8160;BME280;27404;52.398;9.646;2023-05-02T09:23:48;101622.38;;;9.76;100.00
8160;BME280;27404;52.398;9.646;2023-05-02T09:26:22;101623.25;;;10.03;100.00
8160;BME280;27404;52.398;9.646;2023-05-02T09:28:52;101628.06;;;9.95;100.00
8160;BME280;27404;52.398;9.646;2023-05-02T09:31:19;101620.97;;;10.14;100.00
8160;BME280;27404;52.398;9.646;2023-05-02T09:33:46;101624.34;;;10.56;100.00
8160;BME280;27404;52.398;9.646;2023-05-02T09:36:15;101635.47;;;10.81;100.00
8160;BME280;27404;52.398;9.646;2023-05-02T09:38:43;101629.81;;;10.76;98.69
8160;BME280;27404;52.398;9.646;2023-05-02T09:41:09;101630.44;;;10.78;97.38
8160;BME280;27404;52.398;9.646;2023-05-02T09:43:35;101628.75;;;10.77;97.81
8160;BME280;27404;52.398;9.646;2023-05-02T09:46:02;101631.56;;;11.30;93.64
8160;BME280;27404;52.398;9.646;2023-05-02T09:48:29;101637.69;;;11.77;89.64
8160;BME280;27404;52.398;9.646;2023-05-02T09:50:55;101639.59;;;11.77;86.81
8160;BME280;27404;52.398;9.646;2023-05-02T09:53:23;101638.97;;;12.13;85.86
8160;BME280;27404;52.398;9.646;2023-05-02T09:56:10;101640.94;;;12.57;81.09
8160;BME280;27404;52.398;9.646;2023-05-02T09:58:35;101644.06;;;12.35;79.44
8160;BME280;27404;52.398;9.646;2023-05-02T10:01:01;101651.38;;;12.16;79.18
8160;BME280;27404;52.398;9.646;2023-05-02T10:03:27;101656.44;;;12.19;76.70
8160;BME280;27404;52.398;9.646;2023-05-02T10:05:54;101657.50;;;12.18;76.75
8160;BME280;27404;52.398;9.646;2023-05-02T10:08:24;101655.28;;;12.34;75.44
8160;BME280;27404;52.398;9.646;2023-05-02T10:10:56;101658.03;;;12.59;74.73
8160;BME280;27404;52.398;9.646;2023-05-02T10:13:23;101664.50;;;12.39;73.32
8160;BME280;27404;52.398;9.646;2023-05-02T10:16:02;101664.63;;;12.77;73.63
8160;BME280;27404;52.398;9.646;2023-05-02T10:18:39;101670.25;;;12.31;72.38
8160;BME280;27404;52.398;9.646;2023-05-02T10:21:10;101680.47;;;12.49;72.79
8160;BME280;27404;52.398;9.646;2023-05-02T10:23:40;101680.41;;;12.56;72.17
8160;BME280;27404;52.398;9.646;2023-05-02T10:26:09;101693.13;;;12.50;71.68
8160;BME280;27404;52.398;9.646;2023-05-02T10:28:35;101686.41;;;12.71;71.32
8160;BME280;27404;52.398;9.646;2023-05-02T10:31:01;101682.97;;;12.51;72.44
8160;BME280;27404;52.398;9.646;2023-05-02T10:33:27;101670.19;;;12.12;72.10
8160;BME280;27404;52.398;9.646;2023-05-02T10:35:55;101686.72;;;11.92;73.74
8160;BME280;27404;52.398;9.646;2023-05-02T10:38:22;101683.34;;;11.38;75.47
8160;BME280;27404;52.398;9.646;2023-05-02T10:40:51;101691.53;;;11.45;76.26
8160;BME280;27404;52.398;9.646;2023-05-02T10:43:22;101687.97;;;11.44;76.26
8160;BME280;27404;52.398;9.646;2023-05-02T10:45:48;101685.88;;;11.39;74.42
8160;BME280;27404;52.398;9.646;2023-05-02T10:48:14;101683.19;;;11.78;75.26
8160;BME280;27404;52.398;9.646;2023-05-02T10:50:54;101685.69;;;12.25;73.59
8160;BME280;27404;52.398;9.646;2023-05-02T10:53:33;101687.31;;;12.33;70.55
8160;BME280;27404;52.398;9.646;2023-05-02T10:56:13;101696.78;;;12.37;70.19
8160;BME280;27404;52.398;9.646;2023-05-02T10:58:40;101695.97;;;12.62;68.65
8160;BME280;27404;52.398;9.646;2023-05-02T11:04:02;101708.38;;;13.34;67.10
8160;BME280;27404;52.398;9.646;2023-05-02T11:06:30;101709.41;;;13.40;62.51
8160;BME280;27404;52.398;9.646;2023-05-02T11:11:45;101708.09;;;12.80;64.04
8160;BME280;27404;52.398;9.646;2023-05-02T11:14:13;101711.63;;;13.06;64.42
8160;BME280;27404;52.398;9.646;2023-05-02T11:24:49;101709.22;;;13.16;61.00
8160;BME280;27404;52.398;9.646;2023-05-02T11:30:03;101709.25;;;13.72;61.75
8160;BME280;27404;52.398;9.646;2023-05-02T11:35:17;101714.91;;;13.77;60.57
8160;BME280;27404;52.398;9.646;2023-05-02T11:37:42;101717.44;;;13.41;60.13
8160;BME280;27404;52.398;9.646;2023-05-02T11:40:14;101723.13;;;13.40;60.33
8160;BME280;27404;52.398;9.646;2023-05-02T11:42:40;101724.75;;;13.47;61.52
8160;BME280;27404;52.398;9.646;2023-05-02T11:45:06;101720.19;;;13.60;58.64
8160;BME280;27404;52.398;9.646;2023-05-02T11:47:32;101725.63;;;13.97;56.52
8160;BME280;27404;52.398;9.646;2023-05-02T11:49:58;101729.72;;;13.76;57.50
8160;BME280;27404;52.398;9.646;2023-05-02T11:52:27;101722.03;;;13.66;57.35
8160;BME280;27404;52.398;9.646;2023-05-02T11:54:53;101721.91;;;13.91;56.78
8160;BME280;27404;52.398;9.646;2023-05-02T11:57:20;101719.34;;;14.09;56.80
8160;BME280;27404;52.398;9.646;2023-05-02T11:59:54;101724.25;;;14.06;58.16
8160;BME280;27404;52.398;9.646;2023-05-02T12:02:44;101735.84;;;14.09;57.22
8160;BME280;27404;52.398;9.646;2023-05-02T12:05:11;101728.16;;;13.99;57.56
8160;BME280;27404;52.398;9.646;2023-05-02T12:07:38;101730.56;;;13.58;54.47
8160;BME280;27404;52.398;9.646;2023-05-02T12:10:05;101729.78;;;13.07;55.87
8160;BME280;27404;52.398;9.646;2023-05-02T12:12:31;101725.81;;;12.52;57.02
8160;BME280;27404;52.398;9.646;2023-05-02T12:14:56;101728.38;;;12.14;57.99
8160;BME280;27404;52.398;9.646;2023-05-02T12:17:22;101726.00;;;11.73;59.76
8160;BME280;27404;52.398;9.646;2023-05-02T12:19:49;101734.75;;;11.95;60.27
8160;BME280;27404;52.398;9.646;2023-05-02T12:22:15;101724.00;;;12.00;61.08
8160;BME280;27404;52.398;9.646;2023-05-02T12:24:41;101729.09;;;11.90;61.31
8160;BME280;27404;52.398;9.646;2023-05-02T12:27:14;101737.34;;;11.76;61.90
8160;BME280;27404;52.398;9.646;2023-05-02T12:29:45;101736.47;;;11.89;61.73
8160;BME280;27404;52.398;9.646;2023-05-02T12:32:11;101737.78;;;12.25;60.19
8160;BME280;27404;52.398;9.646;2023-05-02T12:34:38;101738.63;;;12.58;59.53
8160;BME280;27404;52.398;9.646;2023-05-02T12:37:05;101743.50;;;13.07;58.28
8160;BME280;27404;52.398;9.646;2023-05-02T12:39:41;101748.22;;;12.99;60.04
8160;BME280;27404;52.398;9.646;2023-05-02T12:44:37;101760.50;;;12.71;61.25
8160;BME280;27404;52.398;9.646;2023-05-02T12:47:03;101775.03;;;12.40;61.13
8160;BME280;27404;52.398;9.646;2023-05-02T12:49:29;101772.88;;;12.49;60.38
8160;BME280;27404;52.398;9.646;2023-05-02T12:51:55;101770.16;;;12.99;59.50
8160;BME280;27404;52.398;9.646;2023-05-02T12:54:21;101774.84;;;12.99;58.90
8160;BME280;27404;52.398;9.646;2023-05-02T12:56:47;101767.44;;;12.42;57.62
8160;BME280;27404;52.398;9.646;2023-05-02T12:59:30;101777.22;;;12.24;58.84
8160;BME280;27404;52.398;9.646;2023-05-02T13:01:55;101787.81;;;12.14;59.39
8160;BME280;27404;52.398;9.646;2023-05-02T13:04:35;101785.13;;;12.07;61.22
8160;BME280;27404;52.398;9.646;2023-05-02T13:07:01;101784.50;;;12.05;59.60
8160;BME280;27404;52.398;9.646;2023-05-02T13:09:26;101785.31;;;12.12;60.82
8160;BME280;27404;52.398;9.646;2023-05-02T13:11:52;101783.09;;;12.28;59.07
8160;BME280;27404;52.398;9.646;2023-05-02T13:14:18;101792.69;;;12.12;58.20
8160;BME280;27404;52.398;9.646;2023-05-02T13:16:43;101793.25;;;12.27;57.79
8160;BME280;27404;52.398;9.646;2023-05-02T13:19:09;101785.09;;;12.53;58.38
8160;BME280;27404;52.398;9.646;2023-05-02T13:21:34;101793.06;;;13.18;57.00
8160;BME280;27404;52.398;9.646;2023-05-02T13:24:00;101797.47;;;13.20;57.16
8160;BME280;27404;52.398;9.646;2023-05-02T13:26:28;101793.44;;;13.47;55.56
8160;BME280;27404;52.398;9.646;2023-05-02T13:28:53;101809.00;;;13.28;57.55
8160;BME280;27404;52.398;9.646;2023-05-02T13:31:20;101802.94;;;12.94;58.56
8160;BME280;27404;52.398;9.646;2023-05-02T13:33:45;101803.72;;;12.76;58.65
8160;BME280;27404;52.398;9.646;2023-05-02T13:36:11;101801.56;;;13.10;59.07
8160;BME280;27404;52.398;9.646;2023-05-02T13:38:36;101811.13;;;12.76;58.90
8160;BME280;27404;52.398;9.646;2023-05-02T13:41:02;101814.69;;;12.76;57.88
8160;BME280;27404;52.398;9.646;2023-05-02T13:43:27;101808.50;;;12.87;56.99
8160;BME280;27404;52.398;9.646;2023-05-02T13:45:53;101815.38;;;12.71;57.94